Time;durP1;ratioP1;P1;durP2;ratioP2;P2;SDS_P1;SDS_P2;PMS_P1;PMS_P2;Temp;Humidity;BMP_temperature;BMP_pressure;BME280_temperature;BME280_humidity;BME280_pressure;Samples;Min_cycle;Max_cycle;Signal;HPM_P1;HPM_P2
2021/12/03 00:02:09;;;;;;;3.47;3.13;;;19.10;47.30;;;;;;5096102;28;20103;-88
2021/12/03 00:04:35;;;;;;;4.53;3.05;;;19.10;47.30;;;;;;5077905;28;20103;-89
2021/12/03 00:07:00;;;;;;;4.10;3.08;;;19.00;47.30;;;;;;5077735;28;20115;-90
2021/12/03 00:09:26;;;;;;;3.30;3.00;;;19.00;47.30;;;;;;5095788;28;20071;-89
2021/12/03 00:11:52;;;;;;;3.20;2.88;;;19.00;47.30;;;;;;5095804;28;20024;-89
2021/12/03 00:14:17;;;;;;;3.15;2.95;;;19.00;47.40;;;;;;5077702;28;20115;-88
2021/12/03 00:16:43;;;;;;;2.78;2.58;;;19.00;47.40;;;;;;5077709;28;20028;-91
2021/12/03 00:19:09;;;;;;;4.00;2.90;;;18.90;47.40;;;;;;5077550;28;20427;-91
2021/12/03 00:21:37;;;;;;;3.40;3.10;;;18.90;47.40;;;;;;5077717;28;20027;-88
2021/12/03 00:24:03;;;;;;;3.08;2.85;;;18.90;47.40;;;;;;5077271;28;20394;-91
2021/12/03 00:26:29;;;;;;;3.75;2.90;;;18.90;47.50;;;;;;5095511;28;20024;-90
2021/12/03 00:28:55;;;;;;;3.85;2.78;;;18.80;47.50;;;;;;5095450;28;20435;-88
2021/12/03 00:31:20;;;;;;;2.80;2.60;;;18.80;47.50;;;;;;5077324;28;20088;-89
2021/12/03 00:33:46;;;;;;;2.67;2.47;;;18.80;47.50;;;;;;5077163;28;20073;-91
2021/12/03 00:36:12;;;;;;;2.85;2.53;;;18.80;47.60;;;;;;5095191;28;20024;-92
2021/12/03 00:38:43;;;;;;;2.63;2.42;;;18.70;47.50;;;;;;5077287;28;20027;-89
2021/12/03 00:41:13;;;;;;;6.00;2.70;;;18.70;47.60;;;;;;5077475;28;20081;-88
2021/12/03 00:43:45;;;;;;;2.95;2.35;;;18.70;47.60;;;;;;5076821;28;20428;-89
2021/12/03 00:46:14;;;;;;;4.22;2.60;;;18.60;47.60;;;;;;5077284;28;20024;-87
2021/12/03 00:48:40;;;;;;;3.10;2.63;;;18.60;47.60;;;;;;5077090;28;20054;-90
2021/12/03 00:51:08;;;;;;;3.03;2.58;;;18.60;47.70;;;;;;5095367;28;20024;-88
2021/12/03 00:53:34;;;;;;;2.53;2.33;;;18.60;47.70;;;;;;5095103;28;20057;-89
2021/12/03 00:55:59;;;;;;;3.05;2.40;;;18.50;47.80;;;;;;5076845;28;20032;-89
2021/12/03 00:58:25;;;;;;;2.53;2.30;;;18.50;47.70;;;;;;5076896;28;20051;-90
2021/12/03 01:00:54;;;;;;;3.28;2.33;;;18.50;47.80;;;;;;5095142;28;20028;-91
2021/12/03 01:03:20;;;;;;;3.83;2.47;;;18.50;47.90;;;;;;5076671;28;20148;-92
2021/12/03 01:05:45;;;;;;;2.75;2.30;;;18.50;47.90;;;;;;5094665;28;20036;-91
2021/12/03 01:08:12;;;;;;;3.80;2.20;;;18.40;47.80;;;;;;5076782;28;20028;-91
2021/12/03 01:10:38;;;;;;;2.25;2.05;;;18.40;47.90;;;;;;5076636;28;20058;-90
2021/12/03 01:13:04;;;;;;;2.75;2.30;;;18.40;47.90;;;;;;5094716;28;20020;-91
2021/12/03 01:15:33;;;;;;;2.20;2.05;;;18.40;47.90;;;;;;5076833;28;20389;-90
2021/12/03 01:17:59;;;;;;;2.17;2.08;;;18.30;47.90;;;;;;5076422;28;20064;-89
2021/12/03 01:20:26;;;;;;;2.28;1.98;;;18.30;47.90;;;;;;5094641;28;20062;-92
2021/12/03 01:22:53;;;;;;;2.20;2.00;;;18.30;47.90;;;;;;5076415;28;20129;-89
2021/12/03 01:25:21;;;;;;;2.10;2.00;;;18.30;48.30;;;;;;5094549;28;20020;-89
2021/12/03 01:27:47;;;;;;;2.22;2.03;;;18.30;48.00;;;;;;5076137;28;20402;-89
2021/12/03 01:30:15;;;;;;;3.03;2.20;;;18.20;47.90;;;;;;5076360;28;20024;-94
2021/12/03 01:32:42;;;;;;;2.30;2.10;;;18.20;48.90;;;;;;5094524;28;20062;-88
2021/12/03 01:35:09;;;;;;;2.70;2.20;;;18.20;48.00;;;;;;5093294;28;20036;-89
2021/12/03 01:37:35;;;;;;;2.78;2.28;;;18.20;48.00;;;;;;5076468;28;20111;-89
2021/12/03 01:40:01;;;;;;;2.78;2.03;;;18.20;48.00;;;;;;5076225;28;20063;-89
2021/12/03 01:42:26;;;;;;;2.78;1.70;;;18.10;47.90;;;;;;5076187;28;20111;-90
2021/12/03 01:44:52;;;;;;;2.80;1.92;;;18.10;48.00;;;;;;5076521;28;20527;-90
2021/12/03 01:47:18;;;;;;;2.20;2.00;;;18.10;48.00;;;;;;5094297;28;20029;-89
2021/12/03 01:49:44;;;;;;;2.40;2.05;;;18.10;48.00;;;;;;5076299;28;20024;-88
2021/12/03 01:52:10;;;;;;;1.90;1.60;;;18.00;47.90;;;;;;5076310;28;20024;-90
2021/12/03 01:54:36;;;;;;;2.50;2.00;;;18.00;48.00;;;;;;5075699;28;20024;-92
2021/12/03 01:57:02;;;;;;;2.25;1.90;;;18.00;48.00;;;;;;5076028;28;20020;-91
2021/12/03 01:59:28;;;;;;;3.35;1.70;;;18.00;48.10;;;;;;5093909;28;20020;-90
2021/12/03 02:01:53;;;;;;;1.70;1.60;;;18.00;48.10;;;;;;5075895;28;20093;-90
2021/12/03 02:04:19;;;;;;;1.83;1.70;;;17.90;48.10;;;;;;5075915;28;20373;-91
2021/12/03 02:06:45;;;;;;;1.65;1.55;;;17.90;48.20;;;;;;5093941;28;20028;-91
2021/12/03 02:09:10;;;;;;;2.03;1.80;;;17.90;48.20;;;;;;5075780;28;20050;-91
2021/12/03 02:11:36;;;;;;;1.73;1.63;;;17.90;48.10;;;;;;5075884;28;20103;-91
2021/12/03 02:14:02;;;;;;;2.13;1.55;;;17.90;48.20;;;;;;5093777;28;20020;-90
2021/12/03 02:16:28;;;;;;;2.75;1.80;;;17.80;48.30;;;;;;5093959;28;20420;-90
2021/12/03 02:18:54;;;;;;;1.65;1.55;;;17.80;48.30;;;;;;5093652;28;20024;-89
2021/12/03 02:21:20;;;;;;;1.67;1.58;;;17.80;48.30;;;;;;5076044;28;20020;-90
2021/12/03 02:23:47;;;;;;;2.20;1.63;;;17.80;48.30;;;;;;5093804;28;20474;-91
2021/12/03 02:26:13;;;;;;;1.80;1.60;;;17.70;48.30;;;;;;5075777;28;20016;-90
2021/12/03 02:28:43;;;;;;;1.95;1.60;;;17.70;48.40;;;;;;5075642;28;20567;-91
2021/12/03 02:31:11;;;;;;;1.48;1.38;;;17.70;48.50;;;;;;5075600;28;20428;-90
2021/12/03 02:33:36;;;;;;;2.60;1.50;;;17.70;48.60;;;;;;5093481;28;20059;-89
2021/12/03 02:36:04;;;;;;;1.75;1.42;;;17.70;48.60;;;;;;5093706;28;20035;-91
2021/12/03 02:38:29;;;;;;;1.60;1.50;;;17.60;48.50;;;;;;5075331;28;20073;-88
2021/12/03 02:40:55;;;;;;;1.65;1.55;;;17.60;48.50;;;;;;5075546;28;20016;-91
2021/12/03 02:43:22;;;;;;;1.45;1.35;;;17.60;48.60;;;;;;5093353;28;20571;-91
2021/12/03 02:45:50;;;;;;;1.60;1.50;;;17.60;48.70;;;;;;5093736;28;20092;-90
2021/12/03 02:48:16;;;;;;;2.08;1.50;;;17.60;48.60;;;;;;5097183;28;20023;-89
2021/12/03 02:50:42;;;;;;;1.65;1.35;;;17.60;48.70;;;;;;5079261;28;20488;-90
2021/12/03 02:53:07;;;;;;;1.83;1.40;;;17.50;48.60;;;;;;5097672;28;20016;-90
2021/12/03 02:55:33;;;;;;;1.95;1.55;;;17.50;48.80;;;;;;5079299;28;20050;-91
2021/12/03 02:57:59;;;;;;;1.45;1.30;;;17.50;48.80;;;;;;5097456;28;20507;-92
2021/12/03 03:00:27;;;;;;;1.92;1.50;;;17.50;48.70;;;;;;5096536;28;20418;-90
2021/12/03 03:02:53;;;;;;;2.15;1.40;;;17.50;48.80;;;;;;5078863;28;20078;-89
2021/12/03 03:05:20;;;;;;;1.90;1.30;;;17.50;48.80;;;;;;5096937;28;20485;-88
2021/12/03 03:07:46;;;;;;;1.30;1.20;;;17.40;48.80;;;;;;5097058;28;20024;-92
2021/12/03 03:10:15;;;;;;;1.50;1.38;;;17.40;48.90;;;;;;5079251;28;20024;-88
2021/12/03 03:12:42;;;;;;;1.50;1.35;;;17.40;48.90;;;;;;5078850;28;20032;-91
2021/12/03 03:15:09;;;;;;;2.03;1.30;;;17.40;49.00;;;;;;5096998;28;20036;-91
2021/12/03 03:17:36;;;;;;;1.90;1.30;;;17.40;49.00;;;;;;5096629;28;20016;-89
2021/12/03 03:20:04;;;;;;;2.33;1.52;;;17.40;49.10;;;;;;5078703;28;20082;-88
2021/12/03 03:22:30;;;;;;;1.52;1.15;;;17.30;49.00;;;;;;5096704;28;20091;-91
2021/12/03 03:24:59;;;;;;;1.60;1.50;;;17.30;49.10;;;;;;5096744;28;20020;-88
2021/12/03 03:27:26;;;;;;;1.58;1.20;;;17.30;49.10;;;;;;5078750;28;20466;-91
2021/12/03 03:29:53;;;;;;;1.30;1.20;;;17.30;49.10;;;;;;5078565;28;20027;-89
2021/12/03 03:32:20;;;;;;;2.25;1.20;;;17.30;49.10;;;;;;5078281;28;20025;-89
2021/12/03 03:34:46;;;;;;;1.70;1.35;;;17.30;49.10;;;;;;5096536;28;20028;-89
2021/12/03 03:37:12;;;;;;;1.50;1.20;;;17.20;49.10;;;;;;5078337;28;20023;-89
2021/12/03 03:39:38;;;;;;;1.58;1.13;;;17.20;49.10;;;;;;5078118;28;20023;-89
2021/12/03 03:42:04;;;;;;;1.23;0.93;;;17.20;49.20;;;;;;5078438;28;20382;-89
2021/12/03 03:44:30;;;;;;;1.50;1.10;;;17.20;49.20;;;;;;5077973;28;20078;-90
2021/12/03 03:46:57;;;;;;;1.35;1.00;;;17.20;49.20;;;;;;5096595;28;20023;-89
2021/12/03 03:49:24;;;;;;;2.17;1.17;;;17.20;49.20;;;;;;5078145;28;20424;-89
2021/12/03 03:51:51;;;;;;;1.42;1.20;;;17.10;49.20;;;;;;5078106;28;20071;-89
2021/12/03 03:54:17;;;;;;;1.75;1.20;;;17.10;49.30;;;;;;5077923;28;20024;-88
2021/12/03 03:56:44;;;;;;;1.75;1.02;;;17.10;49.20;;;;;;5096151;28;20522;-89
2021/12/03 03:59:10;;;;;;;1.08;0.98;;;17.10;49.30;;;;;;5095294;28;20022;-89
2021/12/03 04:01:36;;;;;;;1.58;1.13;;;17.00;49.20;;;;;;5096231;28;20098;-88
2021/12/03 04:04:03;;;;;;;1.85;1.30;;;17.00;50.30;;;;;;5095692;28;20024;-89
2021/12/03 04:06:28;;;;;;;1.25;1.15;;;17.00;49.40;;;;;;5095940;28;20034;-90
2021/12/03 04:08:54;;;;;;;1.45;1.25;;;17.00;49.30;;;;;;5077842;28;20024;-90
2021/12/03 04:11:22;;;;;;;1.70;1.00;;;17.00;49.30;;;;;;5077551;28;20063;-92
2021/12/03 04:13:48;;;;;;;1.40;1.00;;;17.00;49.30;;;;;;5077619;28;20016;-91
2021/12/03 04:16:14;;;;;;;1.10;1.00;;;17.00;49.40;;;;;;5095620;28;20034;-89
2021/12/03 04:18:40;;;;;;;1.88;1.10;;;17.00;49.40;;;;;;5077637;28;20052;-90
2021/12/03 04:21:05;;;;;;;1.50;1.15;;;16.90;49.90;;;;;;5077757;28;20140;-90
2021/12/03 04:23:31;;;;;;;1.55;1.10;;;16.90;49.40;;;;;;5077431;28;20031;-90
2021/12/03 04:25:57;;;;;;;1.38;1.10;;;16.90;49.50;;;;;;5077594;28;20027;-88
2021/12/03 04:28:23;;;;;;;1.45;1.00;;;16.90;50.50;;;;;;5077369;28;20024;-88
2021/12/03 04:30:50;;;;;;;1.85;1.08;;;16.90;49.60;;;;;;5077118;28;20043;-89
2021/12/03 04:33:16;;;;;;;1.35;1.13;;;16.80;49.50;;;;;;5095561;28;20055;-91
2021/12/03 04:35:42;;;;;;;1.33;1.00;;;16.80;49.40;;;;;;5076884;28;20426;-86
2021/12/03 04:38:07;;;;;;;1.50;1.08;;;16.80;49.50;;;;;;5076879;28;20058;-88
2021/12/03 04:40:35;;;;;;;2.67;1.20;;;16.80;49.50;;;;;;5077173;28;20435;-88
2021/12/03 04:43:01;;;;;;;1.85;1.10;;;16.80;49.30;;;;;;5094763;28;20056;-91
2021/12/03 04:45:28;;;;;;;1.35;1.10;;;16.80;49.00;;;;;;5077062;28;20026;-85
2021/12/03 04:47:55;;;;;;;1.80;1.05;;;16.80;48.80;;;;;;5095094;28;20024;-89
2021/12/03 04:50:47;;;;;;;3.03;1.25;;;16.70;48.60;;;;;;5094903;28;20020;-93
2021/12/03 04:53:22;;;;;;;3.10;1.20;;;16.70;48.40;;;;;;5080327;28;20115;-94
2021/12/03 04:55:59;;;;;;;3.97;1.50;;;16.70;48.50;;;;;;5079483;28;20139;-92
2021/12/03 04:58:48;;;;;;;3.70;1.48;;;16.70;48.20;;;;;;5097418;28;20023;-94
2021/12/03 05:01:16;;;;;;;2.33;1.20;;;16.70;47.90;;;;;;5079168;28;20066;-93
2021/12/03 05:03:50;;;;;;;1.70;1.17;;;16.70;48.10;;;;;;5096300;28;20028;-93
2021/12/03 05:06:29;;;;;;;2.67;1.75;;;16.60;47.80;;;;;;5077673;28;20030;-94
2021/12/03 05:09:05;;;;;;;4.15;1.70;;;16.70;47.70;;;;;;5078116;28;20028;-93
2021/12/03 05:11:37;;;;;;;3.63;1.73;;;16.60;47.60;;;;;;5076913;28;20024;-94
2021/12/03 05:14:17;;;;;;;2.75;1.60;;;16.60;47.50;;;;;;5078071;28;20032;-93
2021/12/03 05:16:52;;;;;;;3.17;1.65;;;16.60;47.30;;;;;;5078230;28;20070;-95
2021/12/03 05:19:24;;;;;;;2.53;1.88;;;16.50;47.30;;;;;;5079136;28;20412;-93
2021/12/03 05:21:53;;;;;;;2.97;1.80;;;16.50;47.20;;;;;;5088685;28;20047;-92
2021/12/03 05:24:21;;;;;;;2.78;1.58;;;16.50;47.30;;;;;;5099234;28;20244;-94
2021/12/03 05:26:50;;;;;;;2.78;1.80;;;16.50;47.20;;;;;;5099463;28;20088;-94
2021/12/03 05:29:28;;;;;;;2.95;1.77;;;16.50;47.20;;;;;;5099973;28;20028;-94
2021/12/03 05:31:53;;;;;;;2.95;2.08;;;16.50;47.20;;;;;;5096274;28;20032;-96
2021/12/03 05:34:24;;;;;;;3.65;1.90;;;16.50;47.20;;;;;;5092060;28;20035;-93
2021/12/03 05:36:53;;;;;;;2.78;1.90;;;16.40;47.10;;;;;;5085333;28;20047;-93
2021/12/03 05:39:18;;;;;;;3.45;2.20;;;16.50;47.30;;;;;;5077819;28;20074;-93
2021/12/03 05:41:46;;;;;;;3.70;2.30;;;16.40;47.20;;;;;;5077299;28;20071;-93
2021/12/03 05:44:13;;;;;;;7.15;2.70;;;16.40;47.20;;;;;;5076773;28;20052;-94
2021/12/03 05:46:44;;;;;;;3.63;2.17;;;16.40;47.20;;;;;;5077116;28;20111;-93
2021/12/03 05:49:13;;;;;;;4.20;2.20;;;16.40;47.10;;;;;;5077084;28;20024;-93
2021/12/03 05:51:44;;;;;;;2.85;2.00;;;16.30;47.10;;;;;;5095189;28;20106;-94
2021/12/03 05:54:12;;;;;;;4.07;2.38;;;16.30;47.10;;;;;;5078064;28;20028;-94
2021/12/03 05:56:38;;;;;;;5.38;2.78;;;16.30;47.10;;;;;;5077967;28;20162;-93
2021/12/03 05:59:09;;;;;;;4.85;2.85;;;16.30;47.00;;;;;;5078487;28;20454;-93
2021/12/03 06:01:35;;;;;;;3.15;1.90;;;16.30;47.00;;;;;;5078630;28;20028;-94
2021/12/03 06:04:01;;;;;;;5.68;2.97;;;16.30;47.00;;;;;;5077372;28;20473;-95
2021/12/03 06:06:29;;;;;;;3.45;2.30;;;16.20;46.70;;;;;;5077193;28;20569;-94
2021/12/03 06:08:57;;;;;;;3.65;2.38;;;16.20;46.70;;;;;;5077021;28;20050;-94
2021/12/03 06:11:29;;;;;;;3.92;2.42;;;16.20;46.90;;;;;;5077546;28;20032;-93
2021/12/03 06:14:01;;;;;;;2.47;2.10;;;16.20;46.80;;;;;;5077719;28;20081;-93
2021/12/03 06:16:29;;;;;;;3.83;2.45;;;16.20;46.80;;;;;;5077443;28;20062;-93
2021/12/03 06:18:55;;;;;;;3.15;2.20;;;16.20;46.70;;;;;;5077470;28;20020;-95
2021/12/03 06:21:22;;;;;;;3.75;1.85;;;16.30;46.70;;;;;;5076944;28;20040;-93
2021/12/03 06:23:47;;;;;;;5.30;1.92;;;16.30;46.40;;;;;;5081074;28;20497;-94
2021/12/03 06:26:13;;;;;;;3.10;2.10;;;16.40;46.30;;;;;;5080602;28;20020;-95
2021/12/03 06:28:40;;;;;;;3.95;2.13;;;16.40;47.00;;;;;;5080637;28;20047;-93
2021/12/03 06:31:17;;;;;;;3.97;1.88;;;16.50;45.80;;;;;;5080703;28;20081;-94
2021/12/03 06:34:04;;;;;;;;;;;;;;;;;;;;;
2021/12/03 06:36:39;;;;;;;6.82;1.90;;;16.80;45.70;;;;;;5097821;28;20048;-92
2021/12/03 06:39:04;;;;;;;2.80;1.60;;;16.90;45.60;;;;;;5074513;28;20036;-93
2021/12/03 06:41:30;;;;;;;3.88;1.60;;;17.10;45.40;;;;;;5079735;28;20037;-91
2021/12/03 06:43:57;;;;;;;5.68;1.40;;;17.30;45.40;;;;;;5080236;28;20101;-93
2021/12/03 06:46:23;;;;;;;3.67;1.40;;;17.40;45.30;;;;;;5079123;28;20494;-92
2021/12/03 06:48:52;;;;;;;2.33;1.17;;;17.60;45.30;;;;;;5079872;28;20094;-93
2021/12/03 06:51:26;;;;;;;1.98;1.00;;;17.80;45.10;;;;;;5079395;28;20448;-92
2021/12/03 06:56:53;;;;;;;5.03;1.20;;;18.20;44.80;;;;;;5093486;28;20044;-92
2021/12/03 07:10:16;;;;;;;3.78;1.08;;;19.30;43.80;;;;;;4957019;29;20038;-92
2021/12/03 07:20:37;;;;;;;6.15;1.20;;;19.90;43.40;;;;;;4922270;29;20438;-94
2021/12/03 07:23:51;;;;;;;5.18;1.20;;;20.00;43.30;;;;;;4884737;29;20039;-94
2021/12/03 07:26:22;;;;;;;3.72;1.20;;;20.10;43.30;;;;;;4901415;29;20047;-88
2021/12/03 07:29:05;;;;;;;9.20;1.35;;;20.20;43.10;;;;;;4995344;28;20612;-90
2021/12/03 07:31:31;;;;;;;;;;;20.30;43.10;;;;;;5073774;28;20096;-89
2021/12/03 07:34:39;;;;;;;11.98;1.40;;;20.30;43.40;;;;;;5078144;28;19994;-91
2021/12/03 07:37:47;;;;;;;13.15;1.65;;;20.30;44.10;;;;;;5078238;28;20381;-92
2021/12/03 07:40:18;;;;;;;15.48;5.28;;;20.40;43.10;;;;;;5077536;28;20055;-92
2021/12/03 07:43:02;;;;;;;25.08;10.02;;;20.40;43.00;;;;;;5094520;28;20017;-94
2021/12/03 07:45:38;;;;;;;;;;;20.40;42.90;;;;;;5079283;28;20047;-93
2021/12/03 07:48:07;;;;;;;25.20;9.38;;;20.40;43.10;;;;;;5097021;28;19911;-90
2021/12/03 07:50:35;;;;;;;24.65;7.60;;;20.40;43.00;;;;;;5078172;28;20023;-88
2021/12/03 07:53:26;;;;;;;18.27;6.53;;;20.50;43.00;;;;;;5078615;28;20078;-92
2021/12/03 07:56:21;;;;;;;14.95;5.45;;;20.50;42.90;;;;;;5063917;28;20036;-95
2021/12/03 07:58:46;;;;;;;18.83;5.68;;;20.50;42.90;;;;;;5015651;28;20403;-93
2021/12/03 08:12:31;;;;;;;13.23;3.35;;;20.50;42.50;;;;;;4975248;28;20031;-95
2021/12/03 08:15:37;;;;;;;13.20;3.15;;;20.50;42.60;;;;;;4975478;28;20578;-96
2021/12/03 08:29:16;;;;;;;11.00;2.58;;;20.40;42.50;;;;;;4961412;28;20015;-96
2021/12/03 08:41:48;;;;;;;9.25;2.10;;;20.30;42.50;;;;;;4995428;28;20089;-91
2021/12/03 08:44:40;;;;;;;9.00;2.20;;;20.30;42.60;;;;;;4995085;28;20058;-93
2021/12/03 08:47:07;;;;;;;10.23;2.20;;;20.30;42.50;;;;;;5016649;28;20144;-92
2021/12/03 08:49:44;;;;;;;10.70;2.45;;;20.30;43.70;;;;;;5057709;28;20039;-94
2021/12/03 08:52:25;;;;;;;13.43;2.10;;;20.30;42.70;;;;;;5077399;28;20474;-94
2021/12/03 08:54:56;;;;;;;9.93;1.90;;;20.30;42.90;;;;;;5077531;28;20031;-93
2021/12/03 08:57:31;;;;;;;7.95;1.65;;;20.30;42.90;;;;;;5077575;28;20115;-94
2021/12/03 09:00:03;;;;;;;9.23;1.88;;;20.30;43.00;;;;;;5077234;28;20369;-94
2021/12/03 09:02:39;;;;;;;7.15;1.60;;;20.30;43.10;;;;;;5077667;28;20032;-89
2021/12/03 09:05:06;;;;;;;9.27;1.65;;;20.30;43.20;;;;;;5077114;28;20028;-93
2021/12/03 09:07:31;;;;;;;9.98;2.28;;;20.30;43.40;;;;;;5077000;28;20026;-92
2021/12/03 09:09:57;;;;;;;7.47;1.55;;;20.20;43.40;;;;;;5077383;28;20024;-92
2021/12/03 09:12:26;;;;;;;7.03;1.75;;;20.20;43.40;;;;;;5077261;28;20031;-93
2021/12/03 09:15:02;;;;;;;14.80;1.90;;;20.20;43.50;;;;;;5076793;28;20035;-92
2021/12/03 09:20:22;;;;;;;15.05;1.60;;;20.20;43.70;;;;;;5094967;28;20603;-94
2021/12/03 09:22:51;;;;;;;16.30;1.90;;;20.20;43.70;;;;;;5077126;28;20492;-94
2021/12/03 09:25:30;;;;;;;13.35;1.95;;;20.20;43.80;;;;;;5076774;28;20020;-93
2021/12/03 09:27:56;;;;;;;10.30;2.00;;;20.20;43.90;;;;;;5076688;28;20119;-93
2021/12/03 09:30:22;;;;;;;5.15;1.63;;;20.20;43.90;;;;;;5077031;28;20059;-91
2021/12/03 09:32:55;;;;;;;10.25;1.58;;;20.20;43.90;;;;;;5076431;28;20032;-94
2021/12/03 09:35:24;;;;;;;5.07;1.30;;;20.20;43.90;;;;;;5076496;28;20020;-94
2021/12/03 09:37:52;;;;;;;7.40;1.50;;;20.20;43.80;;;;;;5076665;28;20028;-93
2021/12/03 09:40:23;;;;;;;10.68;1.55;;;20.20;44.90;;;;;;5076785;28;20462;-93
2021/12/03 09:43:20;;;;;;;11.63;1.52;;;20.20;43.90;;;;;;5074274;28;20020;-96
2021/12/03 09:46:33;;;;;;;10.73;2.00;;;20.20;43.90;;;;;;5073129;28;20028;-91
2021/12/03 09:51:40;;;;;;;35.28;30.50;;;20.10;44.10;;;;;;5069815;28;20482;-91
2021/12/03 09:54:26;;;;;;;49.15;43.80;;;20.10;44.20;;;;;;5073596;28;20074;-90
2021/12/03 09:56:58;;;;;;;52.83;47.45;;;20.10;44.30;;;;;;5072117;28;20111;-89
2021/12/03 09:59:49;;;;;;;56.53;50.40;;;20.10;44.40;;;;;;5073886;28;20017;-90
2021/12/03 10:02:33;;;;;;;59.97;53.55;;;20.10;44.50;;;;;;5073320;28;20542;-90
2021/12/03 10:11:12;;;;;;;74.05;66.45;;;20.10;44.90;;;;;;5078158;28;20023;-93
2021/12/03 10:13:33;;;;;;;78.97;71.20;;;20.10;44.90;;;;;;5077640;28;20035;-91
2021/12/03 10:16:27;;;;;;;78.32;70.63;;;20.10;44.90;;;;;;5095693;28;20497;-91
2021/12/03 10:18:59;;;;;;;87.22;78.85;;;20.10;44.90;;;;;;5092626;28;20028;-91
2021/12/03 10:31:00;;;;;;;128.95;116.18;;;20.10;45.10;;;;;;5093969;28;20157;-93
2021/12/03 10:38:49;;;;;;;132.73;119.78;;;20.10;45.10;;;;;;5086737;28;20505;-88
2021/12/03 10:44:11;;;;;;;128.93;116.63;;;20.20;45.20;;;;;;5080472;28;20051;-87
2021/12/03 10:57:35;;;;;;;123.13;110.97;;;20.10;45.40;;;;;;5092937;28;20075;-85
2021/12/03 11:14:03;;;;;;;105.55;94.15;;;20.10;45.60;;;;;;5117066;28;20407;-87
2021/12/03 11:40:37;;;;;;;92.95;83.28;;;20.10;45.90;;;;;;5137100;27;20027;-86
2021/12/03 11:56:10;;;;;;;81.50;73.15;;;20.10;45.80;;;;;;5136843;27;20030;-87
2021/12/03 12:34:27;;;;;;;63.58;57.10;;;20.00;46.10;;;;;;5116510;28;20030;-85
2021/12/03 12:39:31;;;;;;;61.60;55.38;;;20.00;46.20;;;;;;5098127;28;20145;-84
2021/12/03 12:56:07;;;;;;;57.63;51.95;;;20.00;46.30;;;;;;5094783;28;20504;-87
2021/12/03 13:59:48;;;;;;;33.97;30.45;;;19.90;46.40;;;;;;5093735;28;20031;-85
2021/12/03 14:08:03;;;;;;;32.35;29.02;;;19.90;46.40;;;;;;5093686;28;20085;-85
2021/12/03 14:40:31;;;;;;;26.30;23.70;;;20.60;45.60;;;;;;5093433;28;20123;-86
2021/12/03 14:43:07;;;;;;;24.90;22.30;;;20.70;45.40;;;;;;5094473;28;20355;-86
2021/12/03 14:56:21;;;;;;;21.33;19.25;;;21.10;44.70;;;;;;5096992;28;20427;-86
2021/12/03 14:59:27;;;;;;;21.77;19.60;;;21.10;44.60;;;;;;5097011;28;20032;-86
2021/12/03 15:02:05;;;;;;;20.98;18.92;;;21.20;44.50;;;;;;5096863;28;20535;-86
2021/12/03 15:04:51;;;;;;;20.83;18.58;;;21.20;44.40;;;;;;5096789;28;20070;-85
2021/12/03 15:07:22;;;;;;;19.65;17.65;;;21.20;44.30;;;;;;5096823;28;20534;-86
2021/12/03 15:09:50;;;;;;;18.23;16.52;;;21.20;44.30;;;;;;5096918;28;20116;-86
2021/12/03 15:23:48;;;;;;;17.00;15.25;;;21.20;44.20;;;;;;5014380;28;20026;-85
2021/12/03 15:31:47;;;;;;;15.98;14.48;;;21.20;44.30;;;;;;5096635;28;20562;-86
2021/12/03 15:55:51;;;;;;;13.57;12.27;;;21.00;44.50;;;;;;5094763;28;20118;-85
2021/12/03 15:58:28;;;;;;;12.65;11.55;;;21.10;44.50;;;;;;5095507;28;20030;-86
2021/12/03 16:03:48;;;;;;;12.55;11.25;;;21.10;44.40;;;;;;5096004;28;20081;-86
2021/12/03 16:06:22;;;;;;;12.23;11.00;;;21.10;44.40;;;;;;5095721;28;20032;-86
2021/12/03 16:08:49;;;;;;;12.00;10.85;;;21.20;44.40;;;;;;5095765;28;20016;-86
2021/12/03 16:11:26;;;;;;;11.90;10.73;;;21.20;44.30;;;;;;5095439;28;20035;-86
2021/12/03 16:51:47;;;;;;;8.75;7.95;;;21.20;44.00;;;;;;5012808;28;20198;-86
2021/12/03 16:54:16;;;;;;;8.43;7.63;;;21.20;44.10;;;;;;5012747;28;20038;-86
2021/12/03 16:56:44;;;;;;;8.25;7.45;;;21.20;44.10;;;;;;5059971;28;20478;-86
2021/12/03 16:59:10;;;;;;;8.85;7.13;;;21.10;44.10;;;;;;5094634;28;20066;-86
2021/12/03 17:01:50;;;;;;;7.97;7.22;;;21.10;44.10;;;;;;5094729;28;20097;-86
2021/12/03 17:18:41;;;;;;;7.63;6.50;;;21.10;44.40;;;;;;5012394;28;20495;-86
2021/12/03 17:45:21;;;;;;;5.50;4.90;;;21.10;44.10;;;;;;5093716;28;20051;-86
2021/12/03 17:47:56;;;;;;;5.90;5.07;;;21.20;44.20;;;;;;5093561;28;20028;-86
2021/12/03 17:50:46;;;;;;;6.05;4.72;;;21.10;44.20;;;;;;5093707;28;20035;-86
2021/12/03 17:53:31;;;;;;;5.20;4.57;;;21.20;44.20;;;;;;5093185;28;20031;-86
2021/12/03 18:01:04;;;;;;;22.10;17.02;;;21.10;44.30;;;;;;5093702;28;20487;-85
2021/12/03 18:08:35;;;;;;;27.20;21.02;;;21.10;44.40;;;;;;5093420;28;20024;-86
2021/12/03 18:46:32;;;;;;;50.55;36.55;;;21.00;45.80;;;;;;5117475;28;20107;-87
2021/12/03 18:49:23;;;;;;;49.40;37.45;;;21.00;46.00;;;;;;5117491;28;20099;-90
2021/12/03 18:54:24;;;;;;;49.50;36.20;;;20.90;46.20;;;;;;5117364;28;19908;-87
2021/12/03 18:56:52;;;;;;;50.08;34.95;;;20.90;46.40;;;;;;5117182;28;20032;-87
2021/12/03 18:59:18;;;;;;;48.50;34.88;;;20.90;47.50;;;;;;5099553;28;20023;-87
2021/12/03 19:01:45;;;;;;;52.80;34.42;;;20.90;46.60;;;;;;5117299;28;20027;-86
2021/12/03 19:04:21;;;;;;;47.42;33.05;;;20.90;46.60;;;;;;5116982;28;20453;-86
2021/12/03 19:14:11;;;;;;;51.15;31.13;;;21.00;46.70;;;;;;5116647;28;20465;-87
2021/12/03 19:16:37;;;;;;;46.42;29.92;;;21.00;46.70;;;;;;5116644;28;20019;-88
2021/12/03 19:19:04;;;;;;;46.90;31.73;;;21.00;46.80;;;;;;5098692;28;20093;-88
2021/12/03 19:21:38;;;;;;;44.08;29.23;;;21.00;46.80;;;;;;5098341;28;20015;-86
2021/12/03 19:24:04;;;;;;;43.30;28.20;;;21.00;46.90;;;;;;5116425;28;20081;-86
2021/12/03 19:26:32;;;;;;;43.13;27.90;;;21.00;47.00;;;;;;5116806;28;20047;-86
2021/12/03 19:29:00;;;;;;;41.30;26.90;;;21.00;47.00;;;;;;5115356;28;20026;-87
2021/12/03 19:31:26;;;;;;;40.28;27.13;;;21.00;47.00;;;;;;5116267;28;20020;-86
2021/12/03 19:33:52;;;;;;;44.60;26.08;;;21.00;47.10;;;;;;5116538;28;20040;-86
2021/12/03 19:36:23;;;;;;;39.38;25.98;;;21.00;47.10;;;;;;5116261;28;20141;-86
2021/12/03 19:38:50;;;;;;;35.47;24.77;;;21.00;47.10;;;;;;5116471;28;20063;-86
2021/12/03 19:41:22;;;;;;;39.05;24.83;;;21.00;47.20;;;;;;5116218;28;20104;-85
2021/12/03 19:43:53;;;;;;;39.25;23.50;;;21.00;47.20;;;;;;5116180;28;20405;-86
2021/12/03 19:46:25;;;;;;;33.22;24.40;;;21.00;47.20;;;;;;5116239;28;20035;-86
2021/12/03 19:49:03;;;;;;;31.13;22.33;;;21.00;47.30;;;;;;5117036;28;20508;-85
2021/12/03 19:51:30;;;;;;;37.00;22.85;;;21.00;47.20;;;;;;5116582;28;20099;-86
2021/12/03 19:54:03;;;;;;;30.50;22.95;;;21.00;47.30;;;;;;5116855;28;20031;-87
2021/12/03 19:56:32;;;;;;;31.63;22.60;;;21.00;47.30;;;;;;5118869;28;20392;-85
2021/12/03 19:58:59;;;;;;;30.27;22.10;;;21.10;48.40;;;;;;5122206;28;20047;-85
2021/12/03 20:01:27;;;;;;;31.52;21.15;;;21.00;47.30;;;;;;5091263;28;20031;-88
2021/12/03 20:03:54;;;;;;;28.73;20.60;;;21.10;47.40;;;;;;5117491;28;20028;-87
2021/12/03 20:06:22;;;;;;;26.27;19.58;;;21.10;47.40;;;;;;5098254;28;20023;-88
2021/12/03 20:08:51;;;;;;;26.83;19.83;;;21.10;47.40;;;;;;5115988;28;20019;-85
2021/12/03 20:11:17;;;;;;;27.10;19.48;;;21.10;47.40;;;;;;5116283;28;20024;-88
2021/12/03 20:13:46;;;;;;;26.95;17.88;;;21.10;47.30;;;;;;5115949;28;20645;-86
2021/12/03 20:16:27;;;;;;;30.55;19.45;;;21.10;47.30;;;;;;5115812;28;20384;-88
2021/12/03 20:19:04;;;;;;;26.15;17.13;;;21.10;47.40;;;;;;5116201;28;20094;-90
2021/12/03 20:21:30;;;;;;;28.63;16.23;;;21.10;47.40;;;;;;5097931;28;20431;-88
2021/12/03 20:26:56;;;;;;;25.13;15.00;;;21.20;47.10;;;;;;5116244;28;20111;-89
2021/12/03 20:29:34;;;;;;;23.10;15.48;;;21.10;47.00;;;;;;5097759;28;20024;-89
2021/12/03 20:34:54;;;;;;;23.60;14.25;;;21.20;47.00;;;;;;5115965;28;20084;-93
2021/12/03 20:37:30;;;;;;;21.80;13.73;;;21.20;46.90;;;;;;5097701;28;20393;-89
2021/12/03 20:40:01;;;;;;;22.02;12.70;;;21.20;46.90;;;;;;5115823;28;20423;-91
2021/12/03 20:42:40;;;;;;;20.00;13.10;;;21.20;46.80;;;;;;5097516;28;20045;-91
2021/12/03 20:50:34;;;;;;;20.88;11.73;;;21.20;47.70;;;;;;5115508;28;20122;-89
2021/12/03 20:53:21;;;;;;;16.98;11.85;;;21.20;46.60;;;;;;5114703;28;20031;-89
2021/12/03 21:09:51;;;;;;;17.95;10.00;;;21.20;46.80;;;;;;5033525;28;20059;-91
2021/12/03 21:12:23;;;;;;;20.35;9.93;;;21.30;46.90;;;;;;5070496;28;20519;-95
2021/12/03 21:14:55;;;;;;;16.48;9.40;;;21.30;47.00;;;;;;5094912;28;20028;-92
2021/12/03 21:20:06;;;;;;;12.95;9.25;;;21.30;48.10;;;;;;5095065;28;20245;-92
2021/12/03 21:22:35;;;;;;;14.95;8.45;;;21.30;47.10;;;;;;5088256;28;20030;-96
2021/12/03 21:25:08;;;;;;;13.82;8.02;;;21.30;47.20;;;;;;5081134;28;20031;-93